createdAt,value
2022-07-29T00:00:49.119Z,1.86
2022-07-29T00:01:52.307Z,2.57
2022-07-29T00:02:55.527Z,2.67
2022-07-29T00:03:59.367Z,2.14
2022-07-29T00:05:02.686Z,1.43
2022-07-29T00:06:06.268Z,2.00
2022-07-29T00:07:09.827Z,1.12
2022-07-29T00:08:14.299Z,0.50
2022-07-29T00:09:17.408Z,0.71
2022-07-29T00:10:20.423Z,1.00
2022-07-29T00:11:23.604Z,1.00
2022-07-29T00:12:26.990Z,1.00
2022-07-29T00:13:32.582Z,1.29
2022-07-29T00:14:34.551Z,0.62
2022-07-29T00:15:37.663Z,1.00
2022-07-29T00:16:40.913Z,1.57
2022-07-29T00:17:44.030Z,1.43
2022-07-29T00:18:47.314Z,1.86
2022-07-29T00:19:50.389Z,1.86
2022-07-29T00:20:53.593Z,1.33
2022-07-29T00:21:56.682Z,2.33
2022-07-29T00:22:59.827Z,1.00
2022-07-29T00:24:03.015Z,1.57
2022-07-29T00:25:06.523Z,1.57
2022-07-29T00:26:09.587Z,1.43
2022-07-29T00:27:12.766Z,2.00
2022-07-29T00:28:16.050Z,1.57
2022-07-29T00:29:33.658Z,1.43
2022-07-29T00:30:23.642Z,2.00
2022-07-29T00:31:26.950Z,1.29
2022-07-29T00:32:30.074Z,2.14
2022-07-29T00:33:33.185Z,2.43
2022-07-29T00:34:36.377Z,1.57
2022-07-29T00:35:39.533Z,0.57
2022-07-29T00:36:42.642Z,0.33
2022-07-29T00:37:45.811Z,2.00
2022-07-29T00:38:48.994Z,3.67
2022-07-29T00:39:52.484Z,2.14
2022-07-29T00:40:55.664Z,1.43
2022-07-29T00:41:58.856Z,2.00
2022-07-29T00:43:02.244Z,1.00
2022-07-29T00:44:05.417Z,1.14
2022-07-29T00:45:08.698Z,1.00
2022-07-29T00:46:12.023Z,0.67
2022-07-29T00:47:15.184Z,0.33
2022-07-29T00:48:18.349Z,1.00
2022-07-29T00:49:21.598Z,1.00
2022-07-29T00:50:24.811Z,1.43
2022-07-29T00:51:28.097Z,2.00
2022-07-29T00:52:31.378Z,2.00
2022-07-29T00:53:34.564Z,1.43
2022-07-29T00:54:43.872Z,1.29
2022-07-29T00:55:42.021Z,3.00
2022-07-29T00:56:45.248Z,3.00
2022-07-29T00:57:48.421Z,2.57
2022-07-29T00:58:52.010Z,2.00
2022-07-29T00:59:55.075Z,1.57
2022-07-29T01:00:58.285Z,1.00
2022-07-29T01:02:01.630Z,1.00
2022-07-29T01:03:05.145Z,1.43
2022-07-29T01:04:08.635Z,5.50
2022-07-29T01:05:12.122Z,7.86
2022-07-29T01:06:15.609Z,2.86
2022-07-29T01:07:19.100Z,1.43
2022-07-29T01:08:22.407Z,1.86
2022-07-29T01:09:42.175Z,1.43
2022-07-29T01:10:30.386Z,1.00
2022-07-29T01:11:33.777Z,1.33
2022-07-29T01:12:37.168Z,1.43
2022-07-29T01:13:40.650Z,1.57
2022-07-29T01:14:44.144Z,1.43
2022-07-29T01:15:48.932Z,2.00
2022-07-29T01:16:52.351Z,1.50
2022-07-29T01:17:55.493Z,1.00
2022-07-29T01:18:58.909Z,1.00
2022-07-29T01:20:02.203Z,1.00
2022-07-29T01:21:05.693Z,1.33
2022-07-29T01:22:09.286Z,1.57
2022-07-29T01:23:12.870Z,1.00
2022-07-29T01:24:16.441Z,1.00
2022-07-29T01:25:19.951Z,0.57
2022-07-29T01:26:23.235Z,0.86
2022-07-29T01:27:27.025Z,1.00
2022-07-29T01:28:30.519Z,1.00
2022-07-29T01:29:35.962Z,1.00
2022-07-29T01:30:39.176Z,1.62
2022-07-29T01:31:59.477Z,1.57
2022-07-29T01:32:46.642Z,2.00
2022-07-29T01:33:49.701Z,1.67
2022-07-29T01:34:52.987Z,0.86
2022-07-29T01:35:56.282Z,0.43
2022-07-29T01:36:59.437Z,0.43
2022-07-29T01:38:02.737Z,1.14
2022-07-29T01:39:06.021Z,2.00
2022-07-29T01:40:09.308Z,1.57
2022-07-29T01:41:12.487Z,1.00
2022-07-29T01:42:15.780Z,1.43
2022-07-29T01:43:19.160Z,1.00
2022-07-29T01:44:22.442Z,1.00
2022-07-29T01:45:25.828Z,1.43
2022-07-29T01:46:29.278Z,2.00
2022-07-29T01:47:33.127Z,1.12
2022-07-29T01:48:37.589Z,0.00
2022-07-29T01:49:41.021Z,0.43
2022-07-29T01:50:44.503Z,0.71
2022-07-29T01:51:47.692Z,0.43
2022-07-29T01:52:51.071Z,0.57
2022-07-29T01:53:54.262Z,0.43
2022-07-29T01:54:57.333Z,1.00
2022-07-29T01:56:00.518Z,1.00
2022-07-29T01:57:03.799Z,1.86
2022-07-29T01:58:07.185Z,1.71
2022-07-29T01:59:10.680Z,1.14
2022-07-29T02:00:14.163Z,0.43
2022-07-29T02:01:17.551Z,1.00
2022-07-29T02:02:21.142Z,0.57
2022-07-29T02:03:24.640Z,0.00
2022-07-29T02:04:29.457Z,1.14
2022-07-29T02:05:32.409Z,1.00
2022-07-29T02:06:35.995Z,0.43
2022-07-29T02:07:39.417Z,0.57
2022-07-29T02:08:42.797Z,0.00
2022-07-29T02:09:45.871Z,0.43
2022-07-29T02:10:49.363Z,0.67
2022-07-29T02:11:52.848Z,0.00
2022-07-29T02:12:55.993Z,0.00
2022-07-29T02:13:59.217Z,0.00
2022-07-29T02:15:02.611Z,0.43
2022-07-29T02:16:05.890Z,1.00
2022-07-29T02:17:08.978Z,1.00
2022-07-29T02:18:12.448Z,0.57
2022-07-29T02:19:15.841Z,0.86
2022-07-29T02:20:19.129Z,1.57
2022-07-29T02:21:22.613Z,0.57
2022-07-29T02:22:26.109Z,0.43
2022-07-29T02:23:29.589Z,1.00
2022-07-29T02:24:32.995Z,1.00
2022-07-29T02:25:37.677Z,1.00
2022-07-29T02:26:40.874Z,0.00
2022-07-29T02:27:44.162Z,0.33
2022-07-29T02:28:47.660Z,1.29
2022-07-29T02:29:51.240Z,1.14
2022-07-29T02:30:54.673Z,0.43
2022-07-29T02:31:58.017Z,1.00
2022-07-29T02:33:01.282Z,0.57
2022-07-29T02:34:04.585Z,0.33
2022-07-29T02:35:08.170Z,1.00
2022-07-29T02:36:11.666Z,0.71
2022-07-29T02:37:14.739Z,0.00
2022-07-29T02:38:18.041Z,0.43
2022-07-29T02:39:21.522Z,0.57
2022-07-29T02:40:25.311Z,0.43
2022-07-29T02:41:30.632Z,0.50
2022-07-29T02:42:33.212Z,0.00
2022-07-29T02:43:37.013Z,0.00
2022-07-29T02:44:40.393Z,0.00
2022-07-29T02:45:44.187Z,0.29
2022-07-29T02:46:47.501Z,0.88
2022-07-29T02:47:50.622Z,1.00
2022-07-29T02:48:53.784Z,1.00
2022-07-29T02:49:57.022Z,0.33
2022-07-29T02:51:00.209Z,0.00
2022-07-29T02:52:03.385Z,0.00
2022-07-29T02:53:06.460Z,0.86
2022-07-29T02:54:09.643Z,1.57
2022-07-29T02:55:12.835Z,0.57
2022-07-29T02:56:16.108Z,0.00
2022-07-29T02:57:19.291Z,0.00
2022-07-29T02:58:22.342Z,0.67
2022-07-29T02:59:25.452Z,0.83
2022-07-29T03:00:28.732Z,1.43
2022-07-29T03:01:32.179Z,1.57
2022-07-29T03:02:35.413Z,1.43
2022-07-29T03:03:38.590Z,1.57
2022-07-29T03:04:41.795Z,0.57
2022-07-29T03:05:44.965Z,0.43
2022-07-29T03:06:48.099Z,1.00
2022-07-29T03:07:51.122Z,0.83
2022-07-29T03:08:54.316Z,1.00
2022-07-29T03:09:57.584Z,0.57
2022-07-29T03:11:00.857Z,0.00
2022-07-29T03:12:04.038Z,0.71
2022-07-29T03:13:07.128Z,1.14
2022-07-29T03:14:10.303Z,0.00
2022-07-29T03:15:14.618Z,0.00
2022-07-29T03:16:17.830Z,0.00
2022-07-29T03:17:21.078Z,0.57
2022-07-29T03:18:24.367Z,0.43
2022-07-29T03:19:27.550Z,0.57
2022-07-29T03:20:30.726Z,0.43
2022-07-29T03:21:33.905Z,1.00
2022-07-29T03:22:36.993Z,0.67
2022-07-29T03:23:40.282Z,0.00
2022-07-29T03:24:43.456Z,0.00
2022-07-29T03:25:46.635Z,0.43
2022-07-29T03:26:49.918Z,0.43
2022-07-29T03:27:52.954Z,0.00
2022-07-29T03:28:55.986Z,0.33
2022-07-29T03:29:59.171Z,0.67
2022-07-29T03:31:02.462Z,0.00
2022-07-29T03:32:08.001Z,0.00
2022-07-29T03:33:13.609Z,0.00
2022-07-29T03:34:14.815Z,0.50
2022-07-29T03:35:18.237Z,0.57
2022-07-29T03:36:21.432Z,0.43
2022-07-29T03:37:24.710Z,0.86
2022-07-29T03:38:27.991Z,0.57
2022-07-29T03:39:31.170Z,0.00
2022-07-29T03:40:34.675Z,0.00
2022-07-29T03:41:37.942Z,0.00
2022-07-29T03:42:41.231Z,0.00
2022-07-29T03:43:49.446Z,0.00
2022-07-29T03:44:48.838Z,0.50
2022-07-29T03:45:52.108Z,0.83
2022-07-29T03:46:55.319Z,0.67
2022-07-29T03:48:00.582Z,0.00
2022-07-29T03:49:02.789Z,0.00
2022-07-29T03:50:05.958Z,0.43
2022-07-29T03:51:10.571Z,0.50
2022-07-29T03:52:13.939Z,0.00
2022-07-29T03:53:17.257Z,0.00
2022-07-29T03:54:20.636Z,0.00
2022-07-29T03:55:24.563Z,0.00
2022-07-29T03:56:27.781Z,0.33
2022-07-29T03:57:31.008Z,0.33
2022-07-29T03:58:34.385Z,0.00
2022-07-29T03:59:37.776Z,0.00
2022-07-29T04:00:41.067Z,0.00
2022-07-29T04:01:44.612Z,0.14
2022-07-29T04:02:48.030Z,0.57
2022-07-29T04:03:51.258Z,0.43
2022-07-29T04:04:54.668Z,0.57
2022-07-29T04:05:57.780Z,0.00
2022-07-29T04:07:00.975Z,0.00
2022-07-29T04:08:04.168Z,0.57
2022-07-29T04:09:07.539Z,0.57
2022-07-29T04:10:12.045Z,0.00
2022-07-29T04:11:15.344Z,0.00
2022-07-29T04:12:18.939Z,0.00
2022-07-29T04:13:22.279Z,0.00
2022-07-29T04:14:25.591Z,0.33
2022-07-29T04:15:31.189Z,0.57
2022-07-29T04:16:33.824Z,0.00
2022-07-29T04:17:37.190Z,0.43
2022-07-29T04:18:40.371Z,0.50
2022-07-29T04:19:43.856Z,0.33
2022-07-29T04:20:47.343Z,0.57
2022-07-29T04:21:50.484Z,0.43
2022-07-29T04:22:53.812Z,0.67
2022-07-29T04:23:56.992Z,0.86
2022-07-29T04:25:03.687Z,1.33
2022-07-29T04:26:04.504Z,0.00
2022-07-29T04:27:07.776Z,0.00
2022-07-29T04:28:11.166Z,0.57
2022-07-29T04:29:14.646Z,0.86
2022-07-29T04:30:18.437Z,1.57
2022-07-29T04:31:25.566Z,1.00
2022-07-29T04:32:26.200Z,1.00
2022-07-29T04:33:29.725Z,0.43
2022-07-29T04:34:33.012Z,1.00
2022-07-29T04:35:38.483Z,1.00
2022-07-29T04:36:40.710Z,0.50
2022-07-29T04:37:43.996Z,0.43
2022-07-29T04:38:47.275Z,0.86
2022-07-29T04:39:50.451Z,0.57
2022-07-29T04:40:53.633Z,0.00
2022-07-29T04:41:57.740Z,0.50
2022-07-29T04:43:03.306Z,1.00
2022-07-29T04:44:07.040Z,0.50
2022-07-29T04:45:10.672Z,0.62
2022-07-29T04:46:13.816Z,0.67
2022-07-29T04:47:17.135Z,0.43
2022-07-29T04:48:22.933Z,0.57
2022-07-29T04:49:24.706Z,0.00
2022-07-29T04:50:27.815Z,0.00
2022-07-29T04:51:30.998Z,0.43
2022-07-29T04:52:34.186Z,0.57
2022-07-29T04:53:37.449Z,1.29
2022-07-29T04:54:40.639Z,1.86
2022-07-29T04:55:43.867Z,1.00
2022-07-29T04:56:46.961Z,0.67
2022-07-29T04:57:50.859Z,0.43
2022-07-29T04:58:54.082Z,1.00
2022-07-29T04:59:57.586Z,1.00
2022-07-29T05:01:00.752Z,0.57
2022-07-29T05:02:04.077Z,0.00
2022-07-29T05:03:07.467Z,0.14
2022-07-29T05:04:10.705Z,0.00
2022-07-29T05:05:13.995Z,0.43
2022-07-29T05:06:18.602Z,0.50
2022-07-29T05:07:21.993Z,0.14
2022-07-29T05:08:25.388Z,1.00
2022-07-29T05:09:28.668Z,0.33
2022-07-29T05:10:32.145Z,1.00
2022-07-29T05:11:35.643Z,1.14
2022-07-29T05:12:39.124Z,0.57
2022-07-29T05:13:45.932Z,0.00
2022-07-29T05:14:47.225Z,0.00
2022-07-29T05:15:50.578Z,0.00
2022-07-29T05:16:54.017Z,0.00
2022-07-29T05:17:57.593Z,0.00
2022-07-29T05:19:00.680Z,0.43
2022-07-29T05:20:03.855Z,1.00
2022-07-29T05:21:07.136Z,1.00
2022-07-29T05:22:10.419Z,0.57
2022-07-29T05:23:14.017Z,0.43
2022-07-29T05:24:17.701Z,1.00
2022-07-29T05:25:21.507Z,0.50
2022-07-29T05:26:25.013Z,0.29
2022-07-29T05:27:30.116Z,0.57
2022-07-29T05:28:33.506Z,1.00
2022-07-29T05:29:44.089Z,0.57
2022-07-29T05:30:41.376Z,1.12
2022-07-29T05:31:44.800Z,1.29
2022-07-29T05:32:48.179Z,0.57
2022-07-29T05:33:51.494Z,0.43
2022-07-29T05:34:54.957Z,1.00
2022-07-29T05:36:00.571Z,0.57
2022-07-29T05:37:02.562Z,0.00
2022-07-29T05:38:05.636Z,0.33
2022-07-29T05:39:10.135Z,0.75
2022-07-29T05:40:13.553Z,0.43
2022-07-29T05:41:16.799Z,1.00
2022-07-29T05:42:19.992Z,0.67
2022-07-29T05:43:23.481Z,0.00
2022-07-29T05:44:26.971Z,0.00
2022-07-29T05:45:30.341Z,0.00
2022-07-29T05:46:33.531Z,0.00
2022-07-29T05:47:36.821Z,0.00
2022-07-29T05:48:40.442Z,0.00
2022-07-29T05:49:43.796Z,0.43
2022-07-29T05:50:47.104Z,1.00
2022-07-29T05:51:50.163Z,1.00
2022-07-29T05:52:53.568Z,0.14
2022-07-29T05:53:56.729Z,0.00
2022-07-29T05:54:59.823Z,0.43
2022-07-29T05:56:03.095Z,1.00
2022-07-29T05:57:06.144Z,0.50
2022-07-29T05:58:09.468Z,0.57
2022-07-29T05:59:17.328Z,0.00
2022-07-29T06:00:17.465Z,0.00
2022-07-29T06:01:20.777Z,0.00
2022-07-29T06:02:24.133Z,0.43
2022-07-29T06:03:27.578Z,0.57
2022-07-29T06:04:30.774Z,0.00
2022-07-29T06:05:33.984Z,0.43
2022-07-29T06:06:37.370Z,0.00
2022-07-29T06:07:40.658Z,0.00
2022-07-29T06:08:44.863Z,1.12
2022-07-29T06:09:47.941Z,1.50
2022-07-29T06:10:50.987Z,0.67
2022-07-29T06:11:53.996Z,0.00
2022-07-29T06:12:57.209Z,0.00
2022-07-29T06:14:00.366Z,0.00
2022-07-29T06:15:03.649Z,0.00
2022-07-29T06:16:07.015Z,0.86
2022-07-29T06:17:10.120Z,1.57
2022-07-29T06:18:13.272Z,0.57
2022-07-29T06:19:17.267Z,0.50
2022-07-29T06:20:20.378Z,1.00
2022-07-29T06:21:24.779Z,0.88
2022-07-29T06:22:27.966Z,0.33
2022-07-29T06:23:31.312Z,0.83
2022-07-29T06:24:34.331Z,0.57
2022-07-29T06:25:37.648Z,0.00
2022-07-29T06:26:41.000Z,0.00
2022-07-29T06:27:44.079Z,0.00
2022-07-29T06:28:47.463Z,0.00
2022-07-29T06:29:51.772Z,0.00
2022-07-29T06:30:55.034Z,0.00
2022-07-29T06:31:58.141Z,0.00
2022-07-29T06:33:01.332Z,0.43
2022-07-29T06:34:04.413Z,1.00
2022-07-29T06:35:37.597Z,0.57
2022-07-29T06:36:12.425Z,0.50
2022-07-29T06:37:15.869Z,0.57
2022-07-29T06:38:34.009Z,0.43
2022-07-29T06:39:23.377Z,0.50
2022-07-29T06:40:26.392Z,0.43
2022-07-29T06:41:29.640Z,0.67
2022-07-29T06:42:32.821Z,0.29
2022-07-29T06:43:36.003Z,0.00
2022-07-29T06:44:40.317Z,0.00
2022-07-29T06:45:43.629Z,0.00
2022-07-29T06:46:46.879Z,0.00
2022-07-29T06:47:50.060Z,0.29
2022-07-29T06:48:53.349Z,0.00
2022-07-29T06:49:56.389Z,0.43
2022-07-29T06:50:59.410Z,1.00
2022-07-29T06:52:02.584Z,1.43
2022-07-29T06:53:05.885Z,1.14
2022-07-29T06:54:09.055Z,0.86
2022-07-29T06:55:12.244Z,1.67
2022-07-29T06:56:16.643Z,1.62
2022-07-29T06:57:19.804Z,1.71
2022-07-29T06:58:22.935Z,0.33
2022-07-29T06:59:33.407Z,2.43
2022-07-29T07:00:30.390Z,1.50
2022-07-29T07:01:33.624Z,0.43
2022-07-29T07:02:36.813Z,1.29
2022-07-29T07:03:39.951Z,1.00
2022-07-29T07:04:43.083Z,0.67
2022-07-29T07:05:46.097Z,0.86
2022-07-29T07:06:49.382Z,1.29
2022-07-29T07:07:52.468Z,1.00
2022-07-29T07:08:55.867Z,0.83
2022-07-29T07:09:59.232Z,0.43
2022-07-29T07:11:02.422Z,1.67
2022-07-29T07:12:05.604Z,2.14
2022-07-29T07:13:08.880Z,1.43
2022-07-29T07:14:12.063Z,1.71
2022-07-29T07:15:15.480Z,0.86
2022-07-29T07:16:18.838Z,0.33
2022-07-29T07:17:22.327Z,1.00
2022-07-29T07:18:25.820Z,0.57
2022-07-29T07:19:29.207Z,0.43
2022-07-29T07:20:32.489Z,1.00
2022-07-29T07:21:36.054Z,0.86
2022-07-29T07:22:39.473Z,1.00
2022-07-29T07:23:42.863Z,0.57
2022-07-29T07:24:45.826Z,0.86
2022-07-29T07:25:48.913Z,2.00
2022-07-29T07:26:52.407Z,1.67
2022-07-29T07:27:55.377Z,1.00
2022-07-29T07:28:58.361Z,1.00
2022-07-29T07:30:01.757Z,1.43
2022-07-29T07:31:04.823Z,0.57
2022-07-29T07:32:07.828Z,1.33
2022-07-29T07:33:11.379Z,2.71
2022-07-29T07:34:15.037Z,1.43
2022-07-29T07:35:18.571Z,1.50
2022-07-29T07:36:21.954Z,1.00
2022-07-29T07:37:25.136Z,1.29
2022-07-29T07:38:28.212Z,1.67
2022-07-29T07:39:31.702Z,2.67
2022-07-29T07:40:35.196Z,1.57
2022-07-29T07:41:38.481Z,1.00
2022-07-29T07:42:41.862Z,1.86
2022-07-29T07:43:45.972Z,2.50
2022-07-29T07:45:12.068Z,2.00
2022-07-29T07:45:53.552Z,2.00
2022-07-29T07:46:56.950Z,1.67
2022-07-29T07:48:01.162Z,2.50
2022-07-29T07:49:04.353Z,3.00
2022-07-29T07:50:07.523Z,3.00
2022-07-29T07:51:10.704Z,3.14
2022-07-29T07:52:14.086Z,3.00
2022-07-29T07:53:17.569Z,3.00
2022-07-29T07:54:21.128Z,3.14
2022-07-29T07:55:24.457Z,2.57
2022-07-29T07:56:30.664Z,2.14
2022-07-29T07:57:31.936Z,2.00
2022-07-29T07:58:35.332Z,1.14
2022-07-29T07:59:39.015Z,2.29
2022-07-29T08:00:42.361Z,3.57
2022-07-29T08:01:47.889Z,3.86
2022-07-29T08:02:49.862Z,3.50
2022-07-29T08:03:52.974Z,2.00
2022-07-29T08:04:56.169Z,1.71
2022-07-29T08:05:59.439Z,2.00
2022-07-29T08:07:02.625Z,2.00
2022-07-29T08:08:06.623Z,2.43
2022-07-29T08:09:28.293Z,3.00
2022-07-29T08:10:14.230Z,2.50
2022-07-29T08:11:18.212Z,1.50
2022-07-29T08:12:21.411Z,1.43
2022-07-29T08:13:24.582Z,2.17
2022-07-29T08:14:27.764Z,2.43
2022-07-29T08:15:30.949Z,2.00
2022-07-29T08:16:34.181Z,2.00
2022-07-29T08:17:37.419Z,1.86
2022-07-29T08:18:40.486Z,3.29
2022-07-29T08:19:43.672Z,3.33
2022-07-29T08:20:48.079Z,2.50
2022-07-29T08:21:51.352Z,1.43
2022-07-29T08:22:54.864Z,2.00
2022-07-29T08:24:01.798Z,2.00
2022-07-29T08:25:02.448Z,3.50
2022-07-29T08:26:05.730Z,3.29
2022-07-29T08:27:26.887Z,2.00
2022-07-29T08:28:13.430Z,2.50
2022-07-29T08:29:19.901Z,1.57
2022-07-29T08:30:21.221Z,1.87
2022-07-29T08:31:24.701Z,2.00
2022-07-29T08:32:52.094Z,3.00
2022-07-29T08:33:32.116Z,2.50
2022-07-29T08:34:35.484Z,1.57
2022-07-29T08:35:38.986Z,1.86
2022-07-29T08:36:42.341Z,2.14
2022-07-29T08:37:45.539Z,1.43
2022-07-29T08:38:49.057Z,2.14
2022-07-29T08:39:52.314Z,4.43
2022-07-29T08:40:55.631Z,4.57
2022-07-29T08:41:58.785Z,4.67
2022-07-29T08:43:02.064Z,3.71
2022-07-29T08:44:05.263Z,3.71
2022-07-29T08:45:08.342Z,3.57
2022-07-29T08:46:11.702Z,3.00
2022-07-29T08:47:15.113Z,1.57
2022-07-29T08:48:18.797Z,1.86
2022-07-29T08:49:22.236Z,2.57
2022-07-29T08:50:25.779Z,2.29
2022-07-29T08:51:29.058Z,2.86
2022-07-29T08:52:32.546Z,3.00
2022-07-29T08:53:35.949Z,2.43
2022-07-29T08:54:39.218Z,2.57
2022-07-29T08:55:42.508Z,2.00
2022-07-29T08:56:45.989Z,1.57
2022-07-29T08:57:50.980Z,1.75
2022-07-29T08:58:54.503Z,2.12
2022-07-29T08:59:59.587Z,2.00
2022-07-29T09:01:03.193Z,1.50
2022-07-29T09:02:06.428Z,1.57
2022-07-29T09:03:10.525Z,2.00
2022-07-29T09:04:13.920Z,2.67
2022-07-29T09:05:17.278Z,1.14
2022-07-29T09:06:20.678Z,1.86
2022-07-29T09:07:23.951Z,3.00
2022-07-29T09:08:27.257Z,2.29
2022-07-29T09:09:30.422Z,1.00
2022-07-29T09:10:33.700Z,2.00
2022-07-29T09:11:37.096Z,3.00
2022-07-29T09:12:40.475Z,3.00
2022-07-29T09:13:43.864Z,3.00
2022-07-29T09:14:47.351Z,2.29
2022-07-29T09:15:50.494Z,2.14
2022-07-29T09:16:54.146Z,3.29
2022-07-29T09:17:57.538Z,3.43
2022-07-29T09:19:00.690Z,3.14
2022-07-29T09:20:03.838Z,2.86
2022-07-29T09:21:06.749Z,3.33
2022-07-29T09:22:09.828Z,1.50
2022-07-29T09:23:13.122Z,2.00
2022-07-29T09:24:17.632Z,2.50
2022-07-29T09:25:20.966Z,3.00
2022-07-29T09:26:23.993Z,3.00
2022-07-29T09:27:27.075Z,2.14
2022-07-29T09:28:30.013Z,2.33
2022-07-29T09:29:36.061Z,2.14
2022-07-29T09:30:37.199Z,1.75
2022-07-29T09:31:40.415Z,1.33
2022-07-29T09:32:43.654Z,2.43
2022-07-29T09:33:46.881Z,3.00
2022-07-29T09:34:50.366Z,2.57
2022-07-29T09:35:56.525Z,1.71
2022-07-29T09:36:58.563Z,1.25
2022-07-29T09:38:01.874Z,2.00
2022-07-29T09:39:05.012Z,1.86
2022-07-29T09:40:11.730Z,1.33
2022-07-29T09:41:12.284Z,2.00
2022-07-29T09:42:16.013Z,2.00
2022-07-29T09:43:20.221Z,1.50
2022-07-29T09:44:23.687Z,2.29
2022-07-29T09:45:26.796Z,1.57
2022-07-29T09:46:30.018Z,1.86
2022-07-29T09:47:33.270Z,3.00
2022-07-29T09:48:36.345Z,2.57
2022-07-29T09:49:39.420Z,2.00
2022-07-29T09:50:42.603Z,2.67
2022-07-29T09:51:45.983Z,2.86
2022-07-29T09:52:49.177Z,3.57
2022-07-29T09:53:52.980Z,2.86
2022-07-29T09:54:56.867Z,3.75
2022-07-29T09:55:59.953Z,3.43
2022-07-29T09:57:03.128Z,3.33
2022-07-29T09:58:06.217Z,2.33
2022-07-29T09:59:09.490Z,3.00
2022-07-29T10:00:12.673Z,3.86
2022-07-29T10:01:15.815Z,3.57
2022-07-29T10:02:23.488Z,4.00
2022-07-29T10:03:23.405Z,3.25
2022-07-29T10:04:26.631Z,4.29
2022-07-29T10:05:36.783Z,7.29
2022-07-29T10:06:34.527Z,7.33
2022-07-29T10:07:37.823Z,6.33
2022-07-29T10:08:41.204Z,6.33
2022-07-29T10:09:44.681Z,5.00
2022-07-29T10:10:48.089Z,5.57
2022-07-29T10:11:51.359Z,5.43
2022-07-29T10:12:54.750Z,5.29
2022-07-29T10:13:57.780Z,5.29
2022-07-29T10:15:01.038Z,6.67
2022-07-29T10:16:04.112Z,5.57
2022-07-29T10:17:07.368Z,5.86
2022-07-29T10:18:10.656Z,7.57
2022-07-29T10:19:13.942Z,8.33
2022-07-29T10:20:17.419Z,7.86
2022-07-29T10:21:22.636Z,8.14
2022-07-29T10:22:50.724Z,9.88
2022-07-29T10:23:29.839Z,10.50
2022-07-29T10:24:34.247Z,8.13
2022-07-29T10:25:37.730Z,7.00
2022-07-29T10:26:41.223Z,8.71
2022-07-29T10:27:44.548Z,11.86
2022-07-29T10:28:47.707Z,12.57
2022-07-29T10:29:50.977Z,12.00
2022-07-29T10:30:55.492Z,11.50
2022-07-29T10:31:58.829Z,12.00
2022-07-29T10:33:02.338Z,13.14
2022-07-29T10:34:05.449Z,13.17
2022-07-29T10:35:08.643Z,13.14
2022-07-29T10:36:11.817Z,14.14
2022-07-29T10:37:16.325Z,16.25
2022-07-29T10:38:19.829Z,14.00
2022-07-29T10:39:23.309Z,15.71
2022-07-29T10:40:26.692Z,17.71
2022-07-29T10:41:32.342Z,17.00
2022-07-29T10:42:35.161Z,14.71
2022-07-29T10:43:38.219Z,15.83
2022-07-29T10:44:41.561Z,18.00
2022-07-29T10:45:45.054Z,16.57
2022-07-29T10:46:48.292Z,14.86
2022-07-29T10:47:51.419Z,14.71
2022-07-29T10:48:54.589Z,11.71
2022-07-29T10:49:58.798Z,11.50
2022-07-29T10:51:03.937Z,12.50
2022-07-29T10:52:07.201Z,11.50
2022-07-29T10:53:10.309Z,12.83
2022-07-29T10:54:14.515Z,13.00
2022-07-29T10:55:18.559Z,14.00
2022-07-29T10:56:22.821Z,13.25
2022-07-29T10:57:53.569Z,10.75
2022-07-29T10:58:31.238Z,11.50
2022-07-29T10:59:36.294Z,12.29
2022-07-29T11:00:38.476Z,10.63
2022-07-29T11:01:48.518Z,12.00
2022-07-29T11:02:46.989Z,11.88
2022-07-29T11:03:52.306Z,10.50
2022-07-29T11:04:55.333Z,10.00
2022-07-29T11:05:59.842Z,9.50
2022-07-29T11:07:04.017Z,10.71
2022-07-29T11:08:07.332Z,13.00
2022-07-29T11:09:10.621Z,13.14
2022-07-29T11:10:14.090Z,12.00
2022-07-29T11:11:18.731Z,11.57
2022-07-29T11:12:23.102Z,9.63
2022-07-29T11:13:26.729Z,9.25
2022-07-29T11:14:30.643Z,8.43
2022-07-29T11:15:35.057Z,8.00
2022-07-29T11:16:39.550Z,9.38
2022-07-29T11:17:52.197Z,8.86
2022-07-29T11:18:47.018Z,7.12
2022-07-29T11:19:52.200Z,8.67
2022-07-29T11:20:54.233Z,11.12
2022-07-29T11:21:58.581Z,10.29
2022-07-29T11:23:01.609Z,10.00
2022-07-29T11:24:04.800Z,11.00
2022-07-29T11:25:08.690Z,11.43
2022-07-29T11:26:12.991Z,11.50
2022-07-29T11:27:17.922Z,9.43
2022-07-29T11:28:23.132Z,10.50
2022-07-29T11:29:24.588Z,10.50
2022-07-29T11:30:27.869Z,8.33
2022-07-29T11:31:31.260Z,10.71
2022-07-29T11:32:35.426Z,11.75
2022-07-29T11:33:55.727Z,9.25
2022-07-29T11:34:44.394Z,9.13
2022-07-29T11:36:00.559Z,9.43
2022-07-29T11:36:52.080Z,9.00
2022-07-29T11:37:57.669Z,9.00
2022-07-29T11:38:59.886Z,8.88
2022-07-29T11:40:03.286Z,9.86
2022-07-29T11:41:06.411Z,10.14
2022-07-29T11:43:14.740Z,9.63
2022-07-29T11:44:18.200Z,11.75
2022-07-29T11:45:43.081Z,11.57
2022-07-29T11:46:26.161Z,11.50
2022-07-29T11:47:30.602Z,10.50
2022-07-29T11:48:34.880Z,10.50
2022-07-29T11:49:39.173Z,10.88
2022-07-29T11:51:48.586Z,12.00
2022-07-29T11:52:52.212Z,11.63
2022-07-29T11:53:55.490Z,10.71
2022-07-29T11:55:09.527Z,9.88
2022-07-29T11:56:04.210Z,10.00
2022-07-29T11:57:07.406Z,9.86
2022-07-29T11:58:10.578Z,10.71
2022-07-29T12:00:18.675Z,9.00
2022-07-29T12:01:22.055Z,9.38
2022-07-29T12:02:36.411Z,9.43
2022-07-29T12:03:32.786Z,10.50
2022-07-29T12:04:34.371Z,9.75
2022-07-29T12:05:38.082Z,9.29
2022-07-29T12:06:42.481Z,9.50
2022-07-29T12:07:02.230Z,11.38
2022-07-29T12:07:47.245Z,10.25
2022-07-29T12:08:53.761Z,10.25
2022-07-29T12:09:57.142Z,7.50
2022-07-29T12:11:00.222Z,7.14
2022-07-29T12:12:05.409Z,10.50
2022-07-29T12:13:07.628Z,9.63
2022-07-29T12:14:11.927Z,9.00
2022-07-29T12:15:16.240Z,8.86
2022-07-29T12:16:27.929Z,9.00
2022-07-29T12:17:24.531Z,9.00
2022-07-29T12:18:28.937Z,9.50
2022-07-29T12:19:33.056Z,9.50
2022-07-29T12:20:37.373Z,10.50
2022-07-29T12:21:40.738Z,10.00
2022-07-29T12:22:44.948Z,9.75
2022-07-29T12:23:49.371Z,10.50
2022-07-29T12:24:54.557Z,10.50
2022-07-29T12:25:57.463Z,9.50
2022-07-29T12:27:01.028Z,9.43
2022-07-29T12:28:05.372Z,9.50
2022-07-29T12:29:14.059Z,9.00
2022-07-29T12:30:12.620Z,8.88
2022-07-29T12:31:41.985Z,9.50
2022-07-29T12:32:21.150Z,9.00
2022-07-29T12:33:24.256Z,8.67
2022-07-29T12:34:27.429Z,8.17
2022-07-29T12:35:30.710Z,8.14
2022-07-29T12:36:34.000Z,9.00
2022-07-29T12:37:41.235Z,9.29
2022-07-29T12:38:41.409Z,11.50
2022-07-29T12:39:44.675Z,10.00
2022-07-29T12:40:47.742Z,9.86
2022-07-29T12:41:50.822Z,11.86
2022-07-29T12:42:54.002Z,12.57
2022-07-29T12:43:57.191Z,10.83
2022-07-29T12:45:00.273Z,11.43
2022-07-29T12:46:03.493Z,9.14
2022-07-29T12:47:06.746Z,9.17
2022-07-29T12:48:09.710Z,9.29
2022-07-29T12:49:12.948Z,11.00
2022-07-29T12:50:16.185Z,12.17
2022-07-29T12:51:19.537Z,15.71
2022-07-29T12:52:22.955Z,13.67
2022-07-29T12:53:26.301Z,13.29
2022-07-29T12:54:29.692Z,11.71
2022-07-29T12:55:35.650Z,9.57
2022-07-29T12:56:43.286Z,17.25
2022-07-29T12:57:43.674Z,31.50
2022-07-29T12:58:50.974Z,27.00
2022-07-29T12:59:51.226Z,11.75
2022-07-29T13:00:54.489Z,11.29
2022-07-29T13:01:57.570Z,12.14
2022-07-29T13:03:00.911Z,10.33
2022-07-29T13:04:04.006Z,9.14
2022-07-29T13:05:07.072Z,14.00
2022-07-29T13:06:10.277Z,15.33
2022-07-29T13:07:15.374Z,11.14
2022-07-29T13:08:20.186Z,14.13
2022-07-29T13:09:21.890Z,15.38
2022-07-29T13:10:25.183Z,15.43
2022-07-29T13:11:28.109Z,17.00
2022-07-29T13:12:31.499Z,14.71
2022-07-29T13:13:34.574Z,10.43
2022-07-29T13:14:37.783Z,10.67
2022-07-29T13:15:40.883Z,10.29
2022-07-29T13:16:44.005Z,11.14
2022-07-29T13:17:48.063Z,8.67
2022-07-29T13:18:51.482Z,8.00
2022-07-29T13:19:54.616Z,9.29
2022-07-29T13:20:57.973Z,9.71
2022-07-29T13:22:01.226Z,7.86
2022-07-29T13:23:04.878Z,7.71
2022-07-29T13:24:08.129Z,8.29
2022-07-29T13:25:11.330Z,8.00
2022-07-29T13:26:14.394Z,8.00
2022-07-29T13:27:17.585Z,6.57
2022-07-29T13:28:21.082Z,7.71
2022-07-29T13:29:25.734Z,9.57
2022-07-29T13:30:28.977Z,9.13
2022-07-29T13:31:32.150Z,8.57
2022-07-29T13:32:35.436Z,8.43
2022-07-29T13:33:38.830Z,9.43
2022-07-29T13:34:42.212Z,9.71
2022-07-29T13:35:45.592Z,10.71
2022-07-29T13:36:48.773Z,10.29
2022-07-29T13:37:52.171Z,8.50
2022-07-29T13:38:55.433Z,8.71
2022-07-29T13:39:58.526Z,9.00
2022-07-29T13:41:01.738Z,8.57
2022-07-29T13:42:07.909Z,7.43
2022-07-29T13:43:09.094Z,8.75
2022-07-29T13:44:12.191Z,9.00
2022-07-29T13:45:15.565Z,8.57
2022-07-29T13:46:19.070Z,8.14
2022-07-29T13:47:22.444Z,9.00
2022-07-29T13:48:26.740Z,7.50
2022-07-29T13:49:30.132Z,7.43
2022-07-29T13:50:33.483Z,9.57
2022-07-29T13:51:36.711Z,9.43
2022-07-29T13:52:39.979Z,9.33
2022-07-29T13:53:43.162Z,6.71
2022-07-29T13:54:46.351Z,6.86
2022-07-29T13:55:49.833Z,8.86
2022-07-29T13:56:53.121Z,10.00
2022-07-29T13:57:56.102Z,8.71
2022-07-29T13:58:59.171Z,7.00
2022-07-29T14:00:02.388Z,8.17
2022-07-29T14:01:05.563Z,7.43
2022-07-29T14:02:08.626Z,8.57
2022-07-29T14:03:11.702Z,8.33